sensor_id;sensor_type;location;lat;lon;timestamp;temperature;humidity
8372;DHT22;4223;48.724;8.982;2022-08-11T00:01:37;17.80;68.60
8372;DHT22;4223;48.724;8.982;2022-08-11T00:04:10;17.70;70.40
8372;DHT22;4223;48.724;8.982;2022-08-11T00:06:38;17.70;78.90
8372;DHT22;4223;48.724;8.982;2022-08-11T00:09:07;17.70;69.60
8372;DHT22;4223;48.724;8.982;2022-08-11T00:11:37;17.60;72.00
8372;DHT22;4223;48.724;8.982;2022-08-11T00:14:14;17.60;69.40
8372;DHT22;4223;48.724;8.982;2022-08-11T00:16:41;17.60;74.50
8372;DHT22;4223;48.724;8.982;2022-08-11T00:19:08;17.50;77.90
8372;DHT22;4223;48.724;8.982;2022-08-11T00:21:40;17.50;76.20
8372;DHT22;4223;48.724;8.982;2022-08-11T00:24:09;17.40;77.70
8372;DHT22;4223;48.724;8.982;2022-08-11T00:26:36;17.40;83.80
8372;DHT22;4223;48.724;8.982;2022-08-11T00:29:09;17.40;80.80
8372;DHT22;4223;48.724;8.982;2022-08-11T00:31:37;17.30;81.20
8372;DHT22;4223;48.724;8.982;2022-08-11T00:34:10;17.30;78.20
8372;DHT22;4223;48.724;8.982;2022-08-11T00:36:42;17.40;83.70
8372;DHT22;4223;48.724;8.982;2022-08-11T00:39:13;17.40;77.40
8372;DHT22;4223;48.724;8.982;2022-08-11T00:41:44;17.40;79.90
8372;DHT22;4223;48.724;8.982;2022-08-11T00:44:28;17.30;86.30
8372;DHT22;4223;48.724;8.982;2022-08-11T00:47:08;17.30;85.40
8372;DHT22;4223;48.724;8.982;2022-08-11T00:49:45;17.30;80.20
8372;DHT22;4223;48.724;8.982;2022-08-11T00:52:37;17.30;82.70
8372;DHT22;4223;48.724;8.982;2022-08-11T00:55:43;17.30;85.50
8372;DHT22;4223;48.724;8.982;2022-08-11T00:58:37;17.30;87.40
8372;DHT22;4223;48.724;8.982;2022-08-11T01:01:20;17.20;90.30
8372;DHT22;4223;48.724;8.982;2022-08-11T01:04:14;17.30;87.20
8372;DHT22;4223;48.724;8.982;2022-08-11T01:09:58;17.30;81.40
8372;DHT22;4223;48.724;8.982;2022-08-11T01:12:42;17.30;85.50
8372;DHT22;4223;48.724;8.982;2022-08-11T01:15:46;17.30;85.10
8372;DHT22;4223;48.724;8.982;2022-08-11T01:24:55;17.30;85.80
8372;DHT22;4223;48.724;8.982;2022-08-11T01:30:56;17.30;85.50
8372;DHT22;4223;48.724;8.982;2022-08-11T01:33:54;17.20;91.50
8372;DHT22;4223;48.724;8.982;2022-08-11T01:40:17;17.30;91.50
8372;DHT22;4223;48.724;8.982;2022-08-11T01:46:13;17.10;90.60
8372;DHT22;4223;48.724;8.982;2022-08-11T01:48:47;17.10;92.00
8372;DHT22;4223;48.724;8.982;2022-08-11T01:51:23;17.10;93.50
8372;DHT22;4223;48.724;8.982;2022-08-11T01:54:02;17.10;91.90
8372;DHT22;4223;48.724;8.982;2022-08-11T01:56:39;17.10;92.90
8372;DHT22;4223;48.724;8.982;2022-08-11T01:59:16;17.10;94.60
8372;DHT22;4223;48.724;8.982;2022-08-11T02:02:05;17.00;94.00
8372;DHT22;4223;48.724;8.982;2022-08-11T02:04:39;17.00;95.00
8372;DHT22;4223;48.724;8.982;2022-08-11T02:07:12;17.00;94.20
8372;DHT22;4223;48.724;8.982;2022-08-11T02:09:55;17.00;93.40
8372;DHT22;4223;48.724;8.982;2022-08-11T02:12:40;17.00;96.10
8372;DHT22;4223;48.724;8.982;2022-08-11T02:15:13;16.90;99.90
8372;DHT22;4223;48.724;8.982;2022-08-11T02:17:49;16.90;98.20
8372;DHT22;4223;48.724;8.982;2022-08-11T02:20:22;16.80;99.90
8372;DHT22;4223;48.724;8.982;2022-08-11T02:23:17;16.80;97.90
8372;DHT22;4223;48.724;8.982;2022-08-11T02:26:09;16.80;99.70
8372;DHT22;4223;48.724;8.982;2022-08-11T02:28:48;16.80;99.90
8372;DHT22;4223;48.724;8.982;2022-08-11T02:31:22;16.70;99.90
8372;DHT22;4223;48.724;8.982;2022-08-11T02:34:14;16.70;99.90
8372;DHT22;4223;48.724;8.982;2022-08-11T02:36:51;16.60;99.90
8372;DHT22;4223;48.724;8.982;2022-08-11T02:39:22;16.50;99.90
8372;DHT22;4223;48.724;8.982;2022-08-11T02:42:05;16.40;99.90
8372;DHT22;4223;48.724;8.982;2022-08-11T02:45:10;16.30;99.80
8372;DHT22;4223;48.724;8.982;2022-08-11T02:47:46;16.20;99.90
8372;DHT22;4223;48.724;8.982;2022-08-11T02:50:41;16.10;99.90
8372;DHT22;4223;48.724;8.982;2022-08-11T02:53:16;16.00;99.90
8372;DHT22;4223;48.724;8.982;2022-08-11T02:55:52;16.00;99.90
8372;DHT22;4223;48.724;8.982;2022-08-11T02:58:30;15.90;99.90
8372;DHT22;4223;48.724;8.982;2022-08-11T03:01:07;15.90;99.90
8372;DHT22;4223;48.724;8.982;2022-08-11T03:03:46;15.70;99.90
8372;DHT22;4223;48.724;8.982;2022-08-11T03:06:26;15.70;99.90
8372;DHT22;4223;48.724;8.982;2022-08-11T03:09:02;15.80;99.90
8372;DHT22;4223;48.724;8.982;2022-08-11T03:11:50;15.80;99.90
8372;DHT22;4223;48.724;8.982;2022-08-11T03:14:46;15.90;99.90
8372;DHT22;4223;48.724;8.982;2022-08-11T03:17:36;16.00;99.90
8372;DHT22;4223;48.724;8.982;2022-08-11T03:20:15;16.00;99.90
8372;DHT22;4223;48.724;8.982;2022-08-11T03:22:51;16.00;99.90
8372;DHT22;4223;48.724;8.982;2022-08-11T03:25:26;16.00;99.90
8372;DHT22;4223;48.724;8.982;2022-08-11T03:28:03;16.00;99.90
8372;DHT22;4223;48.724;8.982;2022-08-11T03:30:45;15.90;99.90
8372;DHT22;4223;48.724;8.982;2022-08-11T03:33:20;16.00;99.90
8372;DHT22;4223;48.724;8.982;2022-08-11T03:36:25;15.90;99.90
8372;DHT22;4223;48.724;8.982;2022-08-11T03:39:04;15.80;99.90
8372;DHT22;4223;48.724;8.982;2022-08-11T03:41:35;15.70;99.90
8372;DHT22;4223;48.724;8.982;2022-08-11T03:47:27;15.50;99.90
8372;DHT22;4223;48.724;8.982;2022-08-11T03:50:07;15.40;99.90
8372;DHT22;4223;48.724;8.982;2022-08-11T03:52:48;15.30;99.90
8372;DHT22;4223;48.724;8.982;2022-08-11T03:55:27;15.20;99.90
8372;DHT22;4223;48.724;8.982;2022-08-11T03:58:23;15.10;99.90
8372;DHT22;4223;48.724;8.982;2022-08-11T04:01:29;15.10;99.90
8372;DHT22;4223;48.724;8.982;2022-08-11T04:04:30;15.00;99.90
8372;DHT22;4223;48.724;8.982;2022-08-11T04:10:36;14.90;99.90
8372;DHT22;4223;48.724;8.982;2022-08-11T04:13:37;15.00;99.90
8372;DHT22;4223;48.724;8.982;2022-08-11T04:16:37;14.80;99.90
8372;DHT22;4223;48.724;8.982;2022-08-11T04:22:44;14.70;99.90
8372;DHT22;4223;48.724;8.982;2022-08-11T04:25:33;14.60;99.90
8372;DHT22;4223;48.724;8.982;2022-08-11T04:28:35;14.50;99.90
8372;DHT22;4223;48.724;8.982;2022-08-11T04:34:26;14.30;99.90
8372;DHT22;4223;48.724;8.982;2022-08-11T04:37:10;14.20;99.90
8372;DHT22;4223;48.724;8.982;2022-08-11T04:40:25;14.10;99.90
8372;DHT22;4223;48.724;8.982;2022-08-11T04:43:38;14.20;1.00
8372;DHT22;4223;48.724;8.982;2022-08-11T04:46:25;14.20;99.90
8372;DHT22;4223;48.724;8.982;2022-08-11T04:52:33;14.20;1.00
8372;DHT22;4223;48.724;8.982;2022-08-11T04:55:56;14.20;1.00
8372;DHT22;4223;48.724;8.982;2022-08-11T05:02:45;14.30;11.20
8372;DHT22;4223;48.724;8.982;2022-08-11T05:08:27;14.50;1.00
8372;DHT22;4223;48.724;8.982;2022-08-11T05:11:10;14.60;1.00
8372;DHT22;4223;48.724;8.982;2022-08-11T05:13:46;14.70;93.20
8372;DHT22;4223;48.724;8.982;2022-08-11T05:16:34;14.70;1.00
8372;DHT22;4223;48.724;8.982;2022-08-11T05:19:24;14.80;1.00
8372;DHT22;4223;48.724;8.982;2022-08-11T05:22:11;14.90;1.00
8372;DHT22;4223;48.724;8.982;2022-08-11T05:25:00;14.90;1.00
8372;DHT22;4223;48.724;8.982;2022-08-11T05:27:54;15.00;1.00
8372;DHT22;4223;48.724;8.982;2022-08-11T05:30:43;15.10;1.00
8372;DHT22;4223;48.724;8.982;2022-08-11T05:33:33;15.20;1.00
8372;DHT22;4223;48.724;8.982;2022-08-11T05:36:24;15.30;1.00
8372;DHT22;4223;48.724;8.982;2022-08-11T05:38:57;15.40;99.90
8372;DHT22;4223;48.724;8.982;2022-08-11T05:41:43;15.50;99.90
8372;DHT22;4223;48.724;8.982;2022-08-11T05:44:29;15.60;99.90
8372;DHT22;4223;48.724;8.982;2022-08-11T05:47:21;15.80;1.00
8372;DHT22;4223;48.724;8.982;2022-08-11T05:50:09;15.90;99.90
8372;DHT22;4223;48.724;8.982;2022-08-11T05:52:54;16.00;1.00
8372;DHT22;4223;48.724;8.982;2022-08-11T05:55:40;16.10;99.90
8372;DHT22;4223;48.724;8.982;2022-08-11T05:58:26;16.20;99.90
8372;DHT22;4223;48.724;8.982;2022-08-11T06:00:59;16.30;99.90
8372;DHT22;4223;48.724;8.982;2022-08-11T06:03:28;16.50;99.90
8372;DHT22;4223;48.724;8.982;2022-08-11T06:05:58;16.60;99.90
8372;DHT22;4223;48.724;8.982;2022-08-11T06:08:30;16.70;99.90
8372;DHT22;4223;48.724;8.982;2022-08-11T06:11:02;16.80;99.90
8372;DHT22;4223;48.724;8.982;2022-08-11T06:13:30;17.00;99.90
8372;DHT22;4223;48.724;8.982;2022-08-11T06:16:00;17.20;99.90
8372;DHT22;4223;48.724;8.982;2022-08-11T06:18:27;17.40;99.90
8372;DHT22;4223;48.724;8.982;2022-08-11T06:20:56;17.60;99.90
8372;DHT22;4223;48.724;8.982;2022-08-11T06:23:30;17.80;99.90
8372;DHT22;4223;48.724;8.982;2022-08-11T06:25:58;18.00;99.90
8372;DHT22;4223;48.724;8.982;2022-08-11T06:28:30;18.10;99.90
8372;DHT22;4223;48.724;8.982;2022-08-11T06:30:59;18.40;99.90
8372;DHT22;4223;48.724;8.982;2022-08-11T06:33:36;18.50;99.90
8372;DHT22;4223;48.724;8.982;2022-08-11T06:36:15;18.70;99.90
8372;DHT22;4223;48.724;8.982;2022-08-11T06:38:52;18.80;99.90
8372;DHT22;4223;48.724;8.982;2022-08-11T06:41:25;19.00;99.90
8372;DHT22;4223;48.724;8.982;2022-08-11T06:44:03;19.20;99.90
8372;DHT22;4223;48.724;8.982;2022-08-11T06:46:34;19.30;99.90
8372;DHT22;4223;48.724;8.982;2022-08-11T06:49:03;19.40;99.90
8372;DHT22;4223;48.724;8.982;2022-08-11T06:51:33;19.60;99.90
8372;DHT22;4223;48.724;8.982;2022-08-11T06:54:00;19.70;99.90
8372;DHT22;4223;48.724;8.982;2022-08-11T06:56:29;19.90;99.90
8372;DHT22;4223;48.724;8.982;2022-08-11T06:59:15;20.10;99.90
8372;DHT22;4223;48.724;8.982;2022-08-11T07:02:05;20.40;99.90
8372;DHT22;4223;48.724;8.982;2022-08-11T07:04:40;20.50;99.90
8372;DHT22;4223;48.724;8.982;2022-08-11T07:07:51;20.80;99.90
8372;DHT22;4223;48.724;8.982;2022-08-11T07:10:49;21.10;99.90
8372;DHT22;4223;48.724;8.982;2022-08-11T07:13:38;21.50;99.90
8372;DHT22;4223;48.724;8.982;2022-08-11T07:16:26;21.90;99.90
8372;DHT22;4223;48.724;8.982;2022-08-11T07:18:59;22.00;99.90
8372;DHT22;4223;48.724;8.982;2022-08-11T07:21:46;22.50;98.80
8372;DHT22;4223;48.724;8.982;2022-08-11T07:24:35;23.00;94.10
8372;DHT22;4223;48.724;8.982;2022-08-11T07:27:24;23.30;91.90
8372;DHT22;4223;48.724;8.982;2022-08-11T07:30:10;23.40;88.60
8372;DHT22;4223;48.724;8.982;2022-08-11T07:32:43;23.70;81.30
8372;DHT22;4223;48.724;8.982;2022-08-11T07:35:14;23.80;82.00
8372;DHT22;4223;48.724;8.982;2022-08-11T07:37:54;24.40;74.30
8372;DHT22;4223;48.724;8.982;2022-08-11T07:40:23;24.80;73.60
8372;DHT22;4223;48.724;8.982;2022-08-11T07:42:51;25.40;66.70
8372;DHT22;4223;48.724;8.982;2022-08-11T07:45:19;25.90;62.10
8372;DHT22;4223;48.724;8.982;2022-08-11T07:48:06;26.30;56.40
8372;DHT22;4223;48.724;8.982;2022-08-11T07:50:53;26.70;68.80
8372;DHT22;4223;48.724;8.982;2022-08-11T07:53:37;27.30;50.80
8372;DHT22;4223;48.724;8.982;2022-08-11T07:56:05;27.70;41.40
8372;DHT22;4223;48.724;8.982;2022-08-11T07:58:34;27.80;39.60
8372;DHT22;4223;48.724;8.982;2022-08-11T08:01:21;27.90;42.50
8372;DHT22;4223;48.724;8.982;2022-08-11T08:04:08;28.20;30.40
8372;DHT22;4223;48.724;8.982;2022-08-11T08:06:55;28.20;32.30
8372;DHT22;4223;48.724;8.982;2022-08-11T08:09:41;28.30;29.20
8372;DHT22;4223;48.724;8.982;2022-08-11T08:12:27;28.60;29.00
8372;DHT22;4223;48.724;8.982;2022-08-11T08:15:14;28.50;28.70
8372;DHT22;4223;48.724;8.982;2022-08-11T08:18:00;28.90;28.80
8372;DHT22;4223;48.724;8.982;2022-08-11T08:20:30;29.00;28.80
8372;DHT22;4223;48.724;8.982;2022-08-11T08:23:00;28.90;28.70
8372;DHT22;4223;48.724;8.982;2022-08-11T08:25:29;29.20;29.00
8372;DHT22;4223;48.724;8.982;2022-08-11T08:27:58;29.40;29.00
8372;DHT22;4223;48.724;8.982;2022-08-11T08:30:26;29.60;29.40
8372;DHT22;4223;48.724;8.982;2022-08-11T08:33:12;29.70;29.20
8372;DHT22;4223;48.724;8.982;2022-08-11T08:35:40;29.60;29.00
8372;DHT22;4223;48.724;8.982;2022-08-11T08:38:10;30.10;29.50
8372;DHT22;4223;48.724;8.982;2022-08-11T08:40:40;30.50;29.90
8372;DHT22;4223;48.724;8.982;2022-08-11T08:43:10;30.30;28.00
8372;DHT22;4223;48.724;8.982;2022-08-11T08:45:40;30.10;29.20
8372;DHT22;4223;48.724;8.982;2022-08-11T08:48:10;30.20;29.00
8372;DHT22;4223;48.724;8.982;2022-08-11T08:50:42;30.30;44.00
8372;DHT22;4223;48.724;8.982;2022-08-11T08:53:33;31.00;24.60
8372;DHT22;4223;48.724;8.982;2022-08-11T08:56:01;30.50;26.20
8372;DHT22;4223;48.724;8.982;2022-08-11T08:58:29;30.40;27.40
8372;DHT22;4223;48.724;8.982;2022-08-11T09:00:58;30.50;24.00
8372;DHT22;4223;48.724;8.982;2022-08-11T09:03:26;31.10;25.40
8372;DHT22;4223;48.724;8.982;2022-08-11T09:05:53;31.10;21.90
8372;DHT22;4223;48.724;8.982;2022-08-11T09:08:21;31.30;21.20
8372;DHT22;4223;48.724;8.982;2022-08-11T09:10:50;31.20;19.80
8372;DHT22;4223;48.724;8.982;2022-08-11T09:13:32;31.50;23.50
8372;DHT22;4223;48.724;8.982;2022-08-11T09:16:00;31.20;20.90
8372;DHT22;4223;48.724;8.982;2022-08-11T09:18:27;31.10;18.30
8372;DHT22;4223;48.724;8.982;2022-08-11T09:20:56;30.90;17.30
8372;DHT22;4223;48.724;8.982;2022-08-11T09:23:23;30.50;19.60
8372;DHT22;4223;48.724;8.982;2022-08-11T09:26:10;30.60;18.60
8372;DHT22;4223;48.724;8.982;2022-08-11T09:28:56;30.80;17.60
8372;DHT22;4223;48.724;8.982;2022-08-11T09:31:23;30.60;17.10
8372;DHT22;4223;48.724;8.982;2022-08-11T09:33:53;30.40;18.00
8372;DHT22;4223;48.724;8.982;2022-08-11T09:36:21;30.60;18.10
8372;DHT22;4223;48.724;8.982;2022-08-11T09:39:06;30.80;18.50
8372;DHT22;4223;48.724;8.982;2022-08-11T09:41:52;30.80;16.30
8372;DHT22;4223;48.724;8.982;2022-08-11T09:44:20;31.10;14.70
8372;DHT22;4223;48.724;8.982;2022-08-11T09:47:05;31.10;14.70
8372;DHT22;4223;48.724;8.982;2022-08-11T09:49:38;30.50;16.40
8372;DHT22;4223;48.724;8.982;2022-08-11T09:52:05;30.20;15.80
8372;DHT22;4223;48.724;8.982;2022-08-11T09:54:34;30.30;17.20
8372;DHT22;4223;48.724;8.982;2022-08-11T09:57:02;30.60;16.30
8372;DHT22;4223;48.724;8.982;2022-08-11T09:59:48;31.00;14.60
8372;DHT22;4223;48.724;8.982;2022-08-11T10:02:19;31.00;14.00
8372;DHT22;4223;48.724;8.982;2022-08-11T10:04:51;30.10;14.80
8372;DHT22;4223;48.724;8.982;2022-08-11T10:07:42;29.60;15.50
8372;DHT22;4223;48.724;8.982;2022-08-11T10:10:15;29.60;14.60
8372;DHT22;4223;48.724;8.982;2022-08-11T10:12:51;29.80;13.50
8372;DHT22;4223;48.724;8.982;2022-08-11T10:15:22;29.90;14.20
8372;DHT22;4223;48.724;8.982;2022-08-11T10:18:07;30.30;13.50
8372;DHT22;4223;48.724;8.982;2022-08-11T10:20:50;30.50;13.00
8372;DHT22;4223;48.724;8.982;2022-08-11T10:23:17;30.60;12.20
8372;DHT22;4223;48.724;8.982;2022-08-11T10:26:11;30.70;12.10
8372;DHT22;4223;48.724;8.982;2022-08-11T10:28:59;30.80;11.90
8372;DHT22;4223;48.724;8.982;2022-08-11T10:31:26;31.00;13.40
8372;DHT22;4223;48.724;8.982;2022-08-11T10:34:11;30.70;14.70
8372;DHT22;4223;48.724;8.982;2022-08-11T10:36:40;31.00;12.60
8372;DHT22;4223;48.724;8.982;2022-08-11T10:39:13;31.30;12.40
8372;DHT22;4223;48.724;8.982;2022-08-11T10:41:42;31.10;11.20
8372;DHT22;4223;48.724;8.982;2022-08-11T10:44:29;31.20;10.10
8372;DHT22;4223;48.724;8.982;2022-08-11T10:46:59;31.00;9.20
8372;DHT22;4223;48.724;8.982;2022-08-11T10:49:43;30.40;11.20
8372;DHT22;4223;48.724;8.982;2022-08-11T10:52:30;30.20;11.90
8372;DHT22;4223;48.724;8.982;2022-08-11T10:55:15;30.40;22.00
8372;DHT22;4223;48.724;8.982;2022-08-11T10:58:00;30.50;10.40
8372;DHT22;4223;48.724;8.982;2022-08-11T11:00:46;30.40;8.80
8372;DHT22;4223;48.724;8.982;2022-08-11T11:03:13;30.70;9.70
8372;DHT22;4223;48.724;8.982;2022-08-11T11:05:40;30.60;8.90
8372;DHT22;4223;48.724;8.982;2022-08-11T11:08:11;30.60;9.70
8372;DHT22;4223;48.724;8.982;2022-08-11T11:10:53;30.40;8.40
8372;DHT22;4223;48.724;8.982;2022-08-11T11:13:22;30.10;8.60
8372;DHT22;4223;48.724;8.982;2022-08-11T11:16:09;30.20;10.30
8372;DHT22;4223;48.724;8.982;2022-08-11T11:18:54;30.70;8.40
8372;DHT22;4223;48.724;8.982;2022-08-11T11:21:24;30.60;9.00
8372;DHT22;4223;48.724;8.982;2022-08-11T11:23:55;30.70;22.00
8372;DHT22;4223;48.724;8.982;2022-08-11T11:26:38;30.60;7.50
8372;DHT22;4223;48.724;8.982;2022-08-11T11:29:30;30.50;8.00
8372;DHT22;4223;48.724;8.982;2022-08-11T11:32:16;30.20;7.30
8372;DHT22;4223;48.724;8.982;2022-08-11T11:35:09;29.80;8.40
8372;DHT22;4223;48.724;8.982;2022-08-11T11:37:40;30.10;6.70
8372;DHT22;4223;48.724;8.982;2022-08-11T11:40:09;30.20;8.70
8372;DHT22;4223;48.724;8.982;2022-08-11T11:42:38;30.30;8.40
8372;DHT22;4223;48.724;8.982;2022-08-11T11:45:07;30.20;7.80
8372;DHT22;4223;48.724;8.982;2022-08-11T11:47:36;30.20;7.70
8372;DHT22;4223;48.724;8.982;2022-08-11T11:50:06;30.20;7.60
8372;DHT22;4223;48.724;8.982;2022-08-11T11:52:34;30.20;8.30
8372;DHT22;4223;48.724;8.982;2022-08-11T11:55:03;30.10;7.70
8372;DHT22;4223;48.724;8.982;2022-08-11T11:57:32;29.80;6.30
8372;DHT22;4223;48.724;8.982;2022-08-11T12:00:18;29.90;7.20
8372;DHT22;4223;48.724;8.982;2022-08-11T12:03:06;29.90;6.50
8372;DHT22;4223;48.724;8.982;2022-08-11T12:05:35;29.90;5.40
8372;DHT22;4223;48.724;8.982;2022-08-11T12:08:03;30.00;5.70
8372;DHT22;4223;48.724;8.982;2022-08-11T12:10:44;29.90;6.40
8372;DHT22;4223;48.724;8.982;2022-08-11T12:13:12;30.00;5.80
8372;DHT22;4223;48.724;8.982;2022-08-11T12:15:57;29.80;4.70
8372;DHT22;4223;48.724;8.982;2022-08-11T12:18:31;29.90;5.30
8372;DHT22;4223;48.724;8.982;2022-08-11T12:21:00;29.80;5.30
8372;DHT22;4223;48.724;8.982;2022-08-11T12:23:27;29.90;5.60
8372;DHT22;4223;48.724;8.982;2022-08-11T12:26:13;29.90;5.30
8372;DHT22;4223;48.724;8.982;2022-08-11T12:28:59;29.90;3.70
8372;DHT22;4223;48.724;8.982;2022-08-11T12:31:28;29.80;4.00
8372;DHT22;4223;48.724;8.982;2022-08-11T12:34:01;29.70;5.10
8372;DHT22;4223;48.724;8.982;2022-08-11T12:36:29;29.60;15.70
8372;DHT22;4223;48.724;8.982;2022-08-11T12:38:59;29.30;4.30
8372;DHT22;4223;48.724;8.982;2022-08-11T12:41:26;29.50;2.90
8372;DHT22;4223;48.724;8.982;2022-08-11T12:44:12;29.60;3.30
8372;DHT22;4223;48.724;8.982;2022-08-11T12:46:58;29.70;2.80
8372;DHT22;4223;48.724;8.982;2022-08-11T12:49:30;29.70;3.70
8372;DHT22;4223;48.724;8.982;2022-08-11T12:52:21;29.90;3.10
8372;DHT22;4223;48.724;8.982;2022-08-11T12:54:55;29.90;3.30
8372;DHT22;4223;48.724;8.982;2022-08-11T12:57:27;30.00;1.90
8372;DHT22;4223;48.724;8.982;2022-08-11T13:00:13;30.00;1.90
8372;DHT22;4223;48.724;8.982;2022-08-11T13:02:57;30.00;15.70
8372;DHT22;4223;48.724;8.982;2022-08-11T13:05:45;30.00;2.20
8372;DHT22;4223;48.724;8.982;2022-08-11T13:08:14;30.00;1.50
8372;DHT22;4223;48.724;8.982;2022-08-11T13:10:42;29.90;1.10
8372;DHT22;4223;48.724;8.982;2022-08-11T13:13:28;30.00;1.00
8372;DHT22;4223;48.724;8.982;2022-08-11T13:15:55;30.00;1.10
8372;DHT22;4223;48.724;8.982;2022-08-11T13:18:23;30.00;14.00
8372;DHT22;4223;48.724;8.982;2022-08-11T13:20:55;30.00;1.00
8372;DHT22;4223;48.724;8.982;2022-08-11T13:23:23;29.90;1.00
8372;DHT22;4223;48.724;8.982;2022-08-11T13:25:52;29.70;2.00
8372;DHT22;4223;48.724;8.982;2022-08-11T13:28:21;29.70;1.20
8372;DHT22;4223;48.724;8.982;2022-08-11T13:30:49;29.70;2.00
8372;DHT22;4223;48.724;8.982;2022-08-11T13:33:35;29.70;1.60
8372;DHT22;4223;48.724;8.982;2022-08-11T13:36:07;29.70;1.00
8372;DHT22;4223;48.724;8.982;2022-08-11T13:38:35;29.60;1.20
8372;DHT22;4223;48.724;8.982;2022-08-11T13:41:03;29.50;1.00
8372;DHT22;4223;48.724;8.982;2022-08-11T13:43:51;29.20;1.00
8372;DHT22;4223;48.724;8.982;2022-08-11T13:46:21;29.20;1.20
8372;DHT22;4223;48.724;8.982;2022-08-11T13:48:49;29.30;1.00
8372;DHT22;4223;48.724;8.982;2022-08-11T13:51:18;29.40;1.20
8372;DHT22;4223;48.724;8.982;2022-08-11T13:53:59;29.60;1.00
8372;DHT22;4223;48.724;8.982;2022-08-11T13:56:28;29.80;1.00
8372;DHT22;4223;48.724;8.982;2022-08-11T13:58:56;29.80;1.00
8372;DHT22;4223;48.724;8.982;2022-08-11T14:01:28;29.80;1.00
8372;DHT22;4223;48.724;8.982;2022-08-11T14:04:00;29.90;1.00
8372;DHT22;4223;48.724;8.982;2022-08-11T14:06:30;29.90;1.00
8372;DHT22;4223;48.724;8.982;2022-08-11T14:08:59;30.00;1.00
8372;DHT22;4223;48.724;8.982;2022-08-11T14:11:28;29.90;1.00
8372;DHT22;4223;48.724;8.982;2022-08-11T14:14:18;29.60;1.00
8372;DHT22;4223;48.724;8.982;2022-08-11T14:16:47;29.60;1.00
8372;DHT22;4223;48.724;8.982;2022-08-11T14:19:18;29.70;1.00
8372;DHT22;4223;48.724;8.982;2022-08-11T14:21:50;29.70;1.00
8372;DHT22;4223;48.724;8.982;2022-08-11T14:24:34;29.70;1.30
8372;DHT22;4223;48.724;8.982;2022-08-11T14:27:02;29.70;1.00
8372;DHT22;4223;48.724;8.982;2022-08-11T14:29:31;29.50;1.00
8372;DHT22;4223;48.724;8.982;2022-08-11T14:32:04;29.50;1.00
8372;DHT22;4223;48.724;8.982;2022-08-11T14:34:32;29.50;1.00
8372;DHT22;4223;48.724;8.982;2022-08-11T14:37:04;29.40;1.00
8372;DHT22;4223;48.724;8.982;2022-08-11T14:39:35;29.50;1.00
8372;DHT22;4223;48.724;8.982;2022-08-11T14:42:05;29.50;1.00
8372;DHT22;4223;48.724;8.982;2022-08-11T14:44:51;29.50;1.00
8372;DHT22;4223;48.724;8.982;2022-08-11T14:47:46;29.40;1.00
8372;DHT22;4223;48.724;8.982;2022-08-11T14:50:16;29.30;1.00
8372;DHT22;4223;48.724;8.982;2022-08-11T14:52:50;29.20;1.00
8372;DHT22;4223;48.724;8.982;2022-08-11T14:55:20;29.20;1.00
8372;DHT22;4223;48.724;8.982;2022-08-11T14:58:07;29.20;1.00
8372;DHT22;4223;48.724;8.982;2022-08-11T15:00:35;29.30;1.00
8372;DHT22;4223;48.724;8.982;2022-08-11T15:03:04;29.20;1.00
8372;DHT22;4223;48.724;8.982;2022-08-11T15:05:37;29.20;1.00
8372;DHT22;4223;48.724;8.982;2022-08-11T15:08:07;29.20;1.00
8372;DHT22;4223;48.724;8.982;2022-08-11T15:10:34;29.30;1.00
8372;DHT22;4223;48.724;8.982;2022-08-11T15:13:02;29.30;1.00
8372;DHT22;4223;48.724;8.982;2022-08-11T15:15:31;29.40;1.00
8372;DHT22;4223;48.724;8.982;2022-08-11T15:18:20;29.40;1.00
8372;DHT22;4223;48.724;8.982;2022-08-11T15:20:48;29.60;1.00
8372;DHT22;4223;48.724;8.982;2022-08-11T15:23:34;29.60;1.00
8372;DHT22;4223;48.724;8.982;2022-08-11T15:26:27;29.70;1.00
8372;DHT22;4223;48.724;8.982;2022-08-11T15:29:11;29.80;1.00
8372;DHT22;4223;48.724;8.982;2022-08-11T15:31:57;29.80;1.00
8372;DHT22;4223;48.724;8.982;2022-08-11T15:34:43;29.80;1.00
8372;DHT22;4223;48.724;8.982;2022-08-11T15:37:30;30.00;1.00
8372;DHT22;4223;48.724;8.982;2022-08-11T15:40:06;29.70;1.00
8372;DHT22;4223;48.724;8.982;2022-08-11T15:42:56;29.70;1.00
8372;DHT22;4223;48.724;8.982;2022-08-11T15:45:43;29.90;1.00
8372;DHT22;4223;48.724;8.982;2022-08-11T15:48:19;29.70;1.00
8372;DHT22;4223;48.724;8.982;2022-08-11T15:50:51;29.60;1.00
8372;DHT22;4223;48.724;8.982;2022-08-11T15:53:24;29.50;1.00
8372;DHT22;4223;48.724;8.982;2022-08-11T15:55:54;29.70;1.00
8372;DHT22;4223;48.724;8.982;2022-08-11T15:58:23;29.70;1.00
8372;DHT22;4223;48.724;8.982;2022-08-11T16:01:11;29.90;1.00
8372;DHT22;4223;48.724;8.982;2022-08-11T16:04:00;29.90;1.00
8372;DHT22;4223;48.724;8.982;2022-08-11T16:06:50;30.10;1.00
8372;DHT22;4223;48.724;8.982;2022-08-11T16:09:22;30.00;1.00
8372;DHT22;4223;48.724;8.982;2022-08-11T16:11:52;29.80;1.00
8372;DHT22;4223;48.724;8.982;2022-08-11T16:14:21;29.70;1.00
8372;DHT22;4223;48.724;8.982;2022-08-11T16:17:09;29.70;1.00
8372;DHT22;4223;48.724;8.982;2022-08-11T16:19:39;29.50;1.00
8372;DHT22;4223;48.724;8.982;2022-08-11T16:22:08;29.30;1.00
8372;DHT22;4223;48.724;8.982;2022-08-11T16:24:38;29.10;1.00
8372;DHT22;4223;48.724;8.982;2022-08-11T16:27:11;29.00;1.00
8372;DHT22;4223;48.724;8.982;2022-08-11T16:29:43;29.00;1.00
8372;DHT22;4223;48.724;8.982;2022-08-11T16:32:12;28.90;1.00
8372;DHT22;4223;48.724;8.982;2022-08-11T16:34:44;28.90;1.00
8372;DHT22;4223;48.724;8.982;2022-08-11T16:37:26;28.70;1.00
8372;DHT22;4223;48.724;8.982;2022-08-11T16:40:12;28.60;1.00
8372;DHT22;4223;48.724;8.982;2022-08-11T16:42:44;28.50;1.00
8372;DHT22;4223;48.724;8.982;2022-08-11T16:45:30;28.50;1.00
8372;DHT22;4223;48.724;8.982;2022-08-11T16:48:14;28.40;1.00
8372;DHT22;4223;48.724;8.982;2022-08-11T16:50:41;28.30;1.00
8372;DHT22;4223;48.724;8.982;2022-08-11T16:53:08;28.20;1.00
8372;DHT22;4223;48.724;8.982;2022-08-11T16:55:36;28.00;1.00
8372;DHT22;4223;48.724;8.982;2022-08-11T16:58:06;27.90;1.00
8372;DHT22;4223;48.724;8.982;2022-08-11T17:00:51;27.70;1.00
8372;DHT22;4223;48.724;8.982;2022-08-11T17:03:18;27.60;1.00
8372;DHT22;4223;48.724;8.982;2022-08-11T17:06:15;27.50;1.00
8372;DHT22;4223;48.724;8.982;2022-08-11T17:09:02;27.30;1.00
8372;DHT22;4223;48.724;8.982;2022-08-11T17:11:51;27.20;1.00
8372;DHT22;4223;48.724;8.982;2022-08-11T17:14:42;27.00;1.00
8372;DHT22;4223;48.724;8.982;2022-08-11T17:17:13;26.90;1.00
8372;DHT22;4223;48.724;8.982;2022-08-11T17:19:45;26.80;1.00
8372;DHT22;4223;48.724;8.982;2022-08-11T17:22:14;26.60;1.00
8372;DHT22;4223;48.724;8.982;2022-08-11T17:25:00;26.50;1.00
8372;DHT22;4223;48.724;8.982;2022-08-11T17:27:29;26.40;1.00
8372;DHT22;4223;48.724;8.982;2022-08-11T17:30:02;26.30;1.00
8372;DHT22;4223;48.724;8.982;2022-08-11T17:32:31;26.20;1.00
8372;DHT22;4223;48.724;8.982;2022-08-11T17:35:18;26.10;1.00
8372;DHT22;4223;48.724;8.982;2022-08-11T17:37:58;26.00;1.00
8372;DHT22;4223;48.724;8.982;2022-08-11T17:40:27;25.90;1.00
8372;DHT22;4223;48.724;8.982;2022-08-11T17:42:56;25.80;1.00
8372;DHT22;4223;48.724;8.982;2022-08-11T17:45:43;25.80;1.00
8372;DHT22;4223;48.724;8.982;2022-08-11T17:48:27;25.80;1.00
8372;DHT22;4223;48.724;8.982;2022-08-11T17:50:56;25.60;1.00
8372;DHT22;4223;48.724;8.982;2022-08-11T17:53:25;25.50;1.30
8372;DHT22;4223;48.724;8.982;2022-08-11T17:56:10;25.40;1.00
8372;DHT22;4223;48.724;8.982;2022-08-11T17:58:58;25.40;1.00
8372;DHT22;4223;48.724;8.982;2022-08-11T18:01:45;25.20;2.80
8372;DHT22;4223;48.724;8.982;2022-08-11T18:04:13;25.10;1.00